Kathryn, ND

11:53 AM CST on January 29, 2015 (GMT -0600)
Valley City | Change Station
CLOSE
Current Station
Airport
Location: Valley City,
Elevation: 1401 ft
Nearby Weather Stations

Elev 1401 ft 46.94 °N, 98.02 °W | Updated 38 minutes ago

Partly Cloudy
Partly Cloudy
19 °F
Feels Like 6 °F
N
15
Wind Variable Wind from North

Today
High -- | Low -- °F
--% Chance of Precip.
Yesterday
High -- | Low -- °F
Precip. -- in
7:59 AM 5:30 PM
Waxing Gibbous, 76% visible
Pressure 30.46 in
Visibility 8.0 miles
Clouds Few 2000 ft
Windchill 6 °F
Dew Point 16 °F
Humidity 86%
Rainfall 0.15 in
Snow Depth Not available.
UV 2 out of 12
Pollen .10 out of 12
Air Quality Not available.
Flu Activity Not available.
METAR KBAC 291715Z AUTO 35013KT 8SM -SN FEW020 M07/M09 A3046 RMK AO2 P0001

More Conditions Fewer Conditions

Pressure 30.46 in
Visibility 8.0 miles
Clouds Few 2000 ft
Windchill 6 °F
Dew Point 16 °F
Humidity 86%
Rainfall 0.15 in
Snow Depth Not available.
UV 2 out of 12
Pollen .10 out of 12
Air Quality Not available.
Flu Activity Not available.
METAR KBAC 291715Z AUTO 35013KT 8SM -SN FEW020 M07/M09 A3046 RMK AO2 P0001

More Conditions Fewer Conditions

10-Day Weather Forecast

Almanac

Astronomy

Jan. 29, 2015 Rise Set
Actual Time
Civil Twilight
Nautical Twilight
Astronomical Twilight
Moon
Length of Visible Light
Length of Day
Tomorrow will be .
, % of the Moon is Illuminated

Today's Extremes

State Highs State Lows

Community

WunderPhotos

Upload Photos

1,791,501 photos uploaded!

WunderBlogs® & News

Nearby

Air Quality

  Air Quality AQ Index Pollutant
Not available.

Snow Depth

Station Depth Elevation

Earthquake Activity

City Distance Mag. Time & Date
Minimum magnitude displayed is 2.5.

Coastal Water Temperatures

Place Temperature

Nearby Weather Stations